• Join FlightAware (Why Join?)
  • Login
  • US Flag 
03:37PM EDT


 

Airport Tracker/Info


-or-


 

Live Flight TrackerFlight Track Log ✈ TMC855 ✈ 25-Apr-2013 ✈ KTEB - KTHV

Flight Track Log - Related Links

Times and Time Zones

All times are in EDT time to prevent confusion due to time zone crossing. See the TMC855 flight status page for this flight to view local times or setup timezone preferences in your user account.

Time Position Orientation Groundspeed Altitude Reporting Facility
EDT Latitude Longitude Course Direction KTS MPH feet Rate Location/Type
06:29PM 40.8333 -74.0833 255° West 186 214 1,300  Level New York TRACON
06:30PM 40.8167 -74.1667 255° West 227 261 2,100 2,040 Climbing New York TRACON
06:31PM 40.8167 -74.2500 270° West 233 268 5,400 3,600 Climbing New York TRACON
06:32PM 40.8167 -74.3500 270° West 255 293 9,300 2,460 Climbing New York TRACON
06:35PM 40.8294 -74.5775 274° West 289 333 13,700 1,380 Climbing New York Center
06:36PM 40.8281 -74.6789 269° West 300 345 14,000 120 Climbing New York Center
06:37PM 40.8261 -74.8050 269° West 312 359 14,000  Level New York Center
06:38PM 40.8242 -74.9200 269° West 312 359 14,000  Level New York Center
06:39PM 40.8222 -75.0325 269° West 312 359 14,100 -60 Climbing New York Center
06:41PM 40.7753 -75.2322 253° West 307 353 13,900 -120 Descending New York Center
06:42PM 40.7317 -75.3361 241° Southwest 302 348 13,900  Level New York Center
06:43PM 40.6883 -75.4292 238° Southwest 302 348 13,900  Level New York Center
06:44PM 40.6492 -75.5250 242° Southwest 302 348 13,900 -300 Level New York Center
06:45PM 40.6100 -75.6206 242° Southwest 302 348 13,400 -900 Descending New York Center
06:46PM 40.5703 -75.7244 243° Southwest 307 353 12,100 -1,440 Descending New York Center
06:47PM 40.5475 -75.8183 252° West 313 360 10,500 -1,500 Descending New York Center
06:48PM 40.5200 -75.9200 250° West 283 326 9,200 -780 Descending New York Center
06:49PM 40.4975 -76.0058 251° West 261 300 9,000 -120 Descending New York Center
06:50PM 40.4750 -76.0942 252° West 261 300 9,000  Level New York Center
06:51PM 40.4547 -76.1689 250° West 261 300 9,000  Level New York Center
06:52PM 40.4278 -76.2594 249° West 248 285 9,000 -540 Level New York Center
06:53PM 40.3950 -76.3358 241° Southwest 242 278 8,000 -1,440 Descending New York Center
06:54PM 40.3442 -76.3944 221° Southwest 243 280 6,200 -1,020 Descending New York Center
06:55PM 40.2981 -76.4453 220° Southwest 249 287 6,000 -120 Descending New York Center
06:56PM 40.2406 -76.5111 221° Southwest 249 287 6,000  Level New York Center
06:57PM 40.1858 -76.5692 219° Southwest 249 287 6,000  Level New York Center
06:58PM 40.1392 -76.6250 222° Southwest 249 287 6,000 -900 Level New York Center
06:59PM 40.0839 -76.6883 221° Southwest 249 287 4,300 -1,320 Descending New York Center
07:00PM 40.0439 -76.7364 223° Southwest 239 275 3,400 -720 Descending New York Center
07:01PM 39.9953 -76.7892 220° Southwest 218 251 2,900 -660 Descending New York Center
07:02PM 39.9803 -76.8419 250° West 187 215 2,100 -900 Descending New York Center
07:03PM 39.9567 -76.8914 238° Southwest 159 183 1,200 -960 Descending New York Center
07:05PM 39.9167 -76.8667 224° Southwest  Level FlightAware Approximate
07:12PM 39.9170 -76.8730 224° Southwest  Level Estimated